sensor_id;sensor_type;location;lat;lon;timestamp;P1;durP1;ratioP1;P2;durP2;ratioP2
48847;SDS011;36611;51.638;5.784;2023-06-14T00:01:14;5.78;;;3.60;;
48847;SDS011;36611;51.638;5.784;2023-06-14T00:03:40;4.30;;;3.42;;
48847;SDS011;36611;51.638;5.784;2023-06-14T00:06:07;4.30;;;3.78;;
48847;SDS011;36611;51.638;5.784;2023-06-14T00:08:34;3.78;;;3.38;;
48847;SDS011;36611;51.638;5.784;2023-06-14T00:11:01;3.38;;;3.08;;
48847;SDS011;36611;51.638;5.784;2023-06-14T00:13:27;4.43;;;3.10;;
48847;SDS011;36611;51.638;5.784;2023-06-14T00:15:54;3.67;;;3.30;;
48847;SDS011;36611;51.638;5.784;2023-06-14T00:18:21;4.78;;;3.17;;
48847;SDS011;36611;51.638;5.784;2023-06-14T00:20:50;4.00;;;3.33;;
48847;SDS011;36611;51.638;5.784;2023-06-14T00:23:19;4.45;;;3.40;;
48847;SDS011;36611;51.638;5.784;2023-06-14T00:25:46;4.72;;;3.58;;
48847;SDS011;36611;51.638;5.784;2023-06-14T00:28:13;3.28;;;2.97;;
48847;SDS011;36611;51.638;5.784;2023-06-14T00:30:40;3.33;;;2.78;;
48847;SDS011;36611;51.638;5.784;2023-06-14T00:33:06;3.58;;;3.28;;
48847;SDS011;36611;51.638;5.784;2023-06-14T00:35:33;3.65;;;3.22;;
48847;SDS011;36611;51.638;5.784;2023-06-14T00:37:59;4.18;;;3.10;;
48847;SDS011;36611;51.638;5.784;2023-06-14T00:40:26;3.45;;;3.08;;
48847;SDS011;36611;51.638;5.784;2023-06-14T00:42:53;3.63;;;3.25;;
48847;SDS011;36611;51.638;5.784;2023-06-14T00:45:19;4.55;;;3.20;;
48847;SDS011;36611;51.638;5.784;2023-06-14T00:47:46;3.33;;;3.03;;
48847;SDS011;36611;51.638;5.784;2023-06-14T00:50:15;3.60;;;3.15;;
48847;SDS011;36611;51.638;5.784;2023-06-14T00:52:42;4.25;;;3.30;;
48847;SDS011;36611;51.638;5.784;2023-06-14T00:55:09;3.50;;;3.03;;
48847;SDS011;36611;51.638;5.784;2023-06-14T00:57:35;3.72;;;3.33;;
48847;SDS011;36611;51.638;5.784;2023-06-14T01:00:05;3.88;;;3.22;;
48847;SDS011;36611;51.638;5.784;2023-06-14T01:02:36;3.30;;;2.90;;
48847;SDS011;36611;51.638;5.784;2023-06-14T01:05:04;5.10;;;3.00;;
48847;SDS011;36611;51.638;5.784;2023-06-14T01:10:35;3.58;;;3.28;;
48847;SDS011;36611;51.638;5.784;2023-06-14T01:13:19;3.65;;;2.85;;
48847;SDS011;36611;51.638;5.784;2023-06-14T01:15:50;3.28;;;2.97;;
48847;SDS011;36611;51.638;5.784;2023-06-14T01:18:17;3.40;;;3.10;;
48847;SDS011;36611;51.638;5.784;2023-06-14T01:20:45;3.65;;;3.17;;
48847;SDS011;36611;51.638;5.784;2023-06-14T01:23:16;3.20;;;2.90;;
48847;SDS011;36611;51.638;5.784;2023-06-14T01:25:44;3.67;;;3.22;;
48847;SDS011;36611;51.638;5.784;2023-06-14T01:28:11;4.00;;;3.50;;
48847;SDS011;36611;51.638;5.784;2023-06-14T01:30:39;3.88;;;3.25;;
48847;SDS011;36611;51.638;5.784;2023-06-14T01:35:46;3.30;;;2.72;;
48847;SDS011;36611;51.638;5.784;2023-06-14T01:38:14;3.30;;;3.00;;
48847;SDS011;36611;51.638;5.784;2023-06-14T01:40:43;3.05;;;2.75;;
48847;SDS011;36611;51.638;5.784;2023-06-14T01:43:14;3.05;;;2.75;;
48847;SDS011;36611;51.638;5.784;2023-06-14T01:45:42;3.15;;;2.70;;
48847;SDS011;36611;51.638;5.784;2023-06-14T01:48:10;3.45;;;2.80;;
48847;SDS011;36611;51.638;5.784;2023-06-14T01:50:38;2.75;;;2.38;;
48847;SDS011;36611;51.638;5.784;2023-06-14T01:53:09;3.40;;;3.10;;
48847;SDS011;36611;51.638;5.784;2023-06-14T01:55:36;5.28;;;3.03;;
48847;SDS011;36611;51.638;5.784;2023-06-14T01:58:06;3.63;;;3.03;;
48847;SDS011;36611;51.638;5.784;2023-06-14T02:00:32;5.38;;;2.92;;
48847;SDS011;36611;51.638;5.784;2023-06-14T02:02:59;3.95;;;2.83;;
48847;SDS011;36611;51.638;5.784;2023-06-14T02:05:26;3.22;;;2.78;;
48847;SDS011;36611;51.638;5.784;2023-06-14T02:07:53;3.75;;;2.50;;
48847;SDS011;36611;51.638;5.784;2023-06-14T02:10:19;3.28;;;2.97;;
48847;SDS011;36611;51.638;5.784;2023-06-14T02:12:46;3.00;;;2.70;;
48847;SDS011;36611;51.638;5.784;2023-06-14T02:15:13;3.60;;;2.70;;
48847;SDS011;36611;51.638;5.784;2023-06-14T02:17:43;3.53;;;2.88;;
48847;SDS011;36611;51.638;5.784;2023-06-14T02:20:11;3.25;;;2.70;;
48847;SDS011;36611;51.638;5.784;2023-06-14T02:22:39;2.85;;;2.65;;
48847;SDS011;36611;51.638;5.784;2023-06-14T02:25:06;2.85;;;2.50;;
48847;SDS011;36611;51.638;5.784;2023-06-14T02:27:34;2.88;;;2.67;;
48847;SDS011;36611;51.638;5.784;2023-06-14T02:30:02;3.65;;;2.88;;
48847;SDS011;36611;51.638;5.784;2023-06-14T02:32:31;2.88;;;2.60;;
48847;SDS011;36611;51.638;5.784;2023-06-14T02:35:00;2.90;;;2.40;;
48847;SDS011;36611;51.638;5.784;2023-06-14T02:37:27;3.03;;;2.65;;
48847;SDS011;36611;51.638;5.784;2023-06-14T02:39:55;3.00;;;2.70;;
48847;SDS011;36611;51.638;5.784;2023-06-14T02:42:22;3.88;;;2.95;;
48847;SDS011;36611;51.638;5.784;2023-06-14T02:44:49;3.10;;;2.80;;
48847;SDS011;36611;51.638;5.784;2023-06-14T02:47:18;3.13;;;2.67;;
48847;SDS011;36611;51.638;5.784;2023-06-14T02:49:45;3.10;;;2.65;;
48847;SDS011;36611;51.638;5.784;2023-06-14T02:52:15;3.83;;;2.83;;
48847;SDS011;36611;51.638;5.784;2023-06-14T02:54:42;2.70;;;2.50;;
48847;SDS011;36611;51.638;5.784;2023-06-14T02:57:09;2.72;;;2.28;;
48847;SDS011;36611;51.638;5.784;2023-06-14T02:59:38;2.53;;;2.33;;
48847;SDS011;36611;51.638;5.784;2023-06-14T03:02:05;3.40;;;2.40;;
48847;SDS011;36611;51.638;5.784;2023-06-14T03:04:32;3.00;;;2.65;;
48847;SDS011;36611;51.638;5.784;2023-06-14T03:07:08;2.95;;;2.65;;
48847;SDS011;36611;51.638;5.784;2023-06-14T03:09:41;2.50;;;2.30;;
48847;SDS011;36611;51.638;5.784;2023-06-14T03:12:10;2.90;;;2.53;;
48847;SDS011;36611;51.638;5.784;2023-06-14T03:14:38;2.80;;;2.50;;
48847;SDS011;36611;51.638;5.784;2023-06-14T03:17:06;2.85;;;2.60;;
48847;SDS011;36611;51.638;5.784;2023-06-14T03:19:36;2.83;;;2.55;;
48847;SDS011;36611;51.638;5.784;2023-06-14T03:22:04;2.78;;;2.20;;
48847;SDS011;36611;51.638;5.784;2023-06-14T03:24:32;2.63;;;2.42;;
48847;SDS011;36611;51.638;5.784;2023-06-14T03:27:08;2.83;;;2.50;;
48847;SDS011;36611;51.638;5.784;2023-06-14T03:29:38;3.22;;;2.92;;
48847;SDS011;36611;51.638;5.784;2023-06-14T03:32:06;3.35;;;2.40;;
48847;SDS011;36611;51.638;5.784;2023-06-14T03:34:35;2.45;;;2.25;;
48847;SDS011;36611;51.638;5.784;2023-06-14T03:37:05;2.80;;;2.50;;
48847;SDS011;36611;51.638;5.784;2023-06-14T03:39:33;3.08;;;2.30;;
48847;SDS011;36611;51.638;5.784;2023-06-14T03:42:00;3.63;;;2.47;;
48847;SDS011;36611;51.638;5.784;2023-06-14T03:44:27;2.58;;;2.25;;
48847;SDS011;36611;51.638;5.784;2023-06-14T03:46:54;2.60;;;2.40;;
48847;SDS011;36611;51.638;5.784;2023-06-14T03:49:22;2.58;;;2.38;;
48847;SDS011;36611;51.638;5.784;2023-06-14T03:51:49;2.47;;;2.20;;
48847;SDS011;36611;51.638;5.784;2023-06-14T03:54:20;2.17;;;1.98;;
48847;SDS011;36611;51.638;5.784;2023-06-14T03:56:52;3.85;;;2.42;;
48847;SDS011;36611;51.638;5.784;2023-06-14T03:59:18;2.50;;;2.15;;
48847;SDS011;36611;51.638;5.784;2023-06-14T04:01:45;2.70;;;2.50;;
48847;SDS011;36611;51.638;5.784;2023-06-14T04:04:14;2.40;;;2.20;;
48847;SDS011;36611;51.638;5.784;2023-06-14T04:06:43;2.50;;;2.30;;
48847;SDS011;36611;51.638;5.784;2023-06-14T04:09:10;2.55;;;1.98;;
48847;SDS011;36611;51.638;5.784;2023-06-14T04:11:37;2.70;;;2.15;;
48847;SDS011;36611;51.638;5.784;2023-06-14T04:14:03;3.28;;;2.20;;
48847;SDS011;36611;51.638;5.784;2023-06-14T04:16:30;2.55;;;2.35;;
48847;SDS011;36611;51.638;5.784;2023-06-14T04:18:58;2.20;;;2.00;;
48847;SDS011;36611;51.638;5.784;2023-06-14T04:21:24;3.08;;;2.40;;
48847;SDS011;36611;51.638;5.784;2023-06-14T04:23:56;2.30;;;2.10;;
48847;SDS011;36611;51.638;5.784;2023-06-14T04:26:26;2.50;;;2.08;;
48847;SDS011;36611;51.638;5.784;2023-06-14T04:28:56;2.55;;;2.30;;
48847;SDS011;36611;51.638;5.784;2023-06-14T04:31:29;3.47;;;2.30;;
48847;SDS011;36611;51.638;5.784;2023-06-14T04:34:00;2.60;;;2.35;;
48847;SDS011;36611;51.638;5.784;2023-06-14T04:36:27;2.63;;;2.42;;
48847;SDS011;36611;51.638;5.784;2023-06-14T04:38:54;2.25;;;2.05;;
48847;SDS011;36611;51.638;5.784;2023-06-14T04:41:24;2.40;;;2.20;;
48847;SDS011;36611;51.638;5.784;2023-06-14T04:43:55;2.40;;;2.20;;
48847;SDS011;36611;51.638;5.784;2023-06-14T04:46:23;2.25;;;2.05;;
48847;SDS011;36611;51.638;5.784;2023-06-14T04:48:50;2.78;;;2.53;;
48847;SDS011;36611;51.638;5.784;2023-06-14T04:51:17;2.65;;;2.25;;
48847;SDS011;36611;51.638;5.784;2023-06-14T04:53:47;3.45;;;2.60;;
48847;SDS011;36611;51.638;5.784;2023-06-14T04:56:16;2.45;;;2.25;;
48847;SDS011;36611;51.638;5.784;2023-06-14T04:58:43;2.30;;;2.10;;
48847;SDS011;36611;51.638;5.784;2023-06-14T05:01:10;2.08;;;1.88;;
48847;SDS011;36611;51.638;5.784;2023-06-14T05:03:37;1.90;;;1.70;;
48847;SDS011;36611;51.638;5.784;2023-06-14T05:06:04;2.28;;;2.08;;
48847;SDS011;36611;51.638;5.784;2023-06-14T05:08:33;2.42;;;2.00;;
48847;SDS011;36611;51.638;5.784;2023-06-14T05:10:59;2.90;;;2.25;;
48847;SDS011;36611;51.638;5.784;2023-06-14T05:13:26;2.20;;;2.00;;
48847;SDS011;36611;51.638;5.784;2023-06-14T05:15:54;2.47;;;2.10;;
48847;SDS011;36611;51.638;5.784;2023-06-14T05:18:21;2.15;;;1.95;;
48847;SDS011;36611;51.638;5.784;2023-06-14T05:20:47;2.00;;;1.80;;
48847;SDS011;36611;51.638;5.784;2023-06-14T05:23:14;2.20;;;2.00;;
48847;SDS011;36611;51.638;5.784;2023-06-14T05:25:45;4.70;;;2.53;;
48847;SDS011;36611;51.638;5.784;2023-06-14T05:28:12;2.05;;;1.85;;
48847;SDS011;36611;51.638;5.784;2023-06-14T05:30:38;2.38;;;2.08;;
48847;SDS011;36611;51.638;5.784;2023-06-14T05:33:08;2.50;;;2.03;;
48847;SDS011;36611;51.638;5.784;2023-06-14T05:35:35;2.63;;;2.30;;
48847;SDS011;36611;51.638;5.784;2023-06-14T05:38:01;2.17;;;1.85;;
48847;SDS011;36611;51.638;5.784;2023-06-14T05:40:28;2.10;;;1.90;;
48847;SDS011;36611;51.638;5.784;2023-06-14T05:42:55;2.30;;;2.10;;
48847;SDS011;36611;51.638;5.784;2023-06-14T05:45:22;2.20;;;1.98;;
48847;SDS011;36611;51.638;5.784;2023-06-14T05:47:48;2.15;;;1.95;;
48847;SDS011;36611;51.638;5.784;2023-06-14T05:50:15;2.42;;;2.20;;
48847;SDS011;36611;51.638;5.784;2023-06-14T05:52:41;1.88;;;1.77;;
48847;SDS011;36611;51.638;5.784;2023-06-14T05:55:08;2.05;;;1.90;;
48847;SDS011;36611;51.638;5.784;2023-06-14T05:57:39;2.13;;;1.92;;
48847;SDS011;36611;51.638;5.784;2023-06-14T06:00:06;2.33;;;2.13;;
48847;SDS011;36611;51.638;5.784;2023-06-14T06:02:43;2.30;;;2.10;;
48847;SDS011;36611;51.638;5.784;2023-06-14T06:05:10;2.17;;;1.98;;
48847;SDS011;36611;51.638;5.784;2023-06-14T06:07:39;2.35;;;2.05;;
48847;SDS011;36611;51.638;5.784;2023-06-14T06:10:06;2.78;;;2.17;;
48847;SDS011;36611;51.638;5.784;2023-06-14T06:12:33;3.53;;;2.00;;
48847;SDS011;36611;51.638;5.784;2023-06-14T06:15:00;2.05;;;1.85;;
48847;SDS011;36611;51.638;5.784;2023-06-14T06:17:26;2.03;;;1.83;;
48847;SDS011;36611;51.638;5.784;2023-06-14T06:20:07;2.42;;;1.90;;
48847;SDS011;36611;51.638;5.784;2023-06-14T06:22:35;2.33;;;2.13;;
48847;SDS011;36611;51.638;5.784;2023-06-14T06:25:02;1.92;;;1.75;;
48847;SDS011;36611;51.638;5.784;2023-06-14T06:27:29;2.42;;;2.10;;
48847;SDS011;36611;51.638;5.784;2023-06-14T06:29:55;3.63;;;2.13;;
48847;SDS011;36611;51.638;5.784;2023-06-14T06:32:22;2.08;;;1.88;;
48847;SDS011;36611;51.638;5.784;2023-06-14T06:34:48;2.00;;;1.80;;
48847;SDS011;36611;51.638;5.784;2023-06-14T06:37:15;1.75;;;1.60;;
48847;SDS011;36611;51.638;5.784;2023-06-14T06:39:42;2.60;;;1.85;;
48847;SDS011;36611;51.638;5.784;2023-06-14T06:42:09;2.05;;;1.83;;
48847;SDS011;36611;51.638;5.784;2023-06-14T06:44:36;2.17;;;1.80;;
48847;SDS011;36611;51.638;5.784;2023-06-14T06:47:02;2.00;;;1.73;;
48847;SDS011;36611;51.638;5.784;2023-06-14T06:49:29;2.15;;;1.70;;
48847;SDS011;36611;51.638;5.784;2023-06-14T06:52:03;2.13;;;1.83;;
48847;SDS011;36611;51.638;5.784;2023-06-14T06:54:31;2.55;;;1.73;;
48847;SDS011;36611;51.638;5.784;2023-06-14T06:56:58;2.05;;;1.85;;
48847;SDS011;36611;51.638;5.784;2023-06-14T06:59:26;2.05;;;1.65;;
48847;SDS011;36611;51.638;5.784;2023-06-14T07:01:52;3.03;;;2.00;;
48847;SDS011;36611;51.638;5.784;2023-06-14T07:04:20;2.20;;;1.90;;
48847;SDS011;36611;51.638;5.784;2023-06-14T07:06:46;1.70;;;1.50;;
48847;SDS011;36611;51.638;5.784;2023-06-14T07:09:13;2.83;;;1.60;;
48847;SDS011;36611;51.638;5.784;2023-06-14T07:11:43;2.65;;;1.88;;
48847;SDS011;36611;51.638;5.784;2023-06-14T07:14:10;2.42;;;1.80;;
48847;SDS011;36611;51.638;5.784;2023-06-14T07:16:37;2.08;;;1.58;;
48847;SDS011;36611;51.638;5.784;2023-06-14T07:19:03;2.30;;;1.90;;
48847;SDS011;36611;51.638;5.784;2023-06-14T07:21:30;1.98;;;1.60;;
48847;SDS011;36611;51.638;5.784;2023-06-14T07:23:57;2.30;;;1.75;;
48847;SDS011;36611;51.638;5.784;2023-06-14T07:26:24;3.30;;;1.88;;
48847;SDS011;36611;51.638;5.784;2023-06-14T07:28:51;2.22;;;1.70;;
48847;SDS011;36611;51.638;5.784;2023-06-14T07:31:18;5.35;;;2.30;;
48847;SDS011;36611;51.638;5.784;2023-06-14T07:33:45;4.90;;;2.10;;
48847;SDS011;36611;51.638;5.784;2023-06-14T07:36:12;3.33;;;1.73;;
48847;SDS011;36611;51.638;5.784;2023-06-14T07:38:38;1.67;;;1.58;;
48847;SDS011;36611;51.638;5.784;2023-06-14T07:41:07;2.00;;;1.63;;
48847;SDS011;36611;51.638;5.784;2023-06-14T07:43:34;2.58;;;1.67;;
48847;SDS011;36611;51.638;5.784;2023-06-14T07:46:00;3.05;;;1.95;;
48847;SDS011;36611;51.638;5.784;2023-06-14T07:48:33;2.20;;;1.83;;
48847;SDS011;36611;51.638;5.784;2023-06-14T07:51:00;2.00;;;1.70;;
48847;SDS011;36611;51.638;5.784;2023-06-14T07:53:27;3.10;;;2.05;;
48847;SDS011;36611;51.638;5.784;2023-06-14T07:55:54;2.63;;;1.60;;
48847;SDS011;36611;51.638;5.784;2023-06-14T07:58:21;1.83;;;1.55;;
48847;SDS011;36611;51.638;5.784;2023-06-14T08:00:48;2.58;;;1.80;;
48847;SDS011;36611;51.638;5.784;2023-06-14T08:03:14;2.10;;;1.90;;
48847;SDS011;36611;51.638;5.784;2023-06-14T08:05:42;1.90;;;1.55;;
48847;SDS011;36611;51.638;5.784;2023-06-14T08:08:08;4.35;;;1.95;;
48847;SDS011;36611;51.638;5.784;2023-06-14T08:10:35;2.53;;;1.80;;
48847;SDS011;36611;51.638;5.784;2023-06-14T08:13:01;1.70;;;1.52;;
48847;SDS011;36611;51.638;5.784;2023-06-14T08:15:28;3.17;;;1.50;;
48847;SDS011;36611;51.638;5.784;2023-06-14T08:17:54;1.85;;;1.60;;
48847;SDS011;36611;51.638;5.784;2023-06-14T08:20:21;2.05;;;1.55;;
48847;SDS011;36611;51.638;5.784;2023-06-14T08:22:48;1.95;;;1.50;;
48847;SDS011;36611;51.638;5.784;2023-06-14T08:25:14;2.20;;;1.50;;
48847;SDS011;36611;51.638;5.784;2023-06-14T08:27:42;2.85;;;1.63;;
48847;SDS011;36611;51.638;5.784;2023-06-14T08:30:08;3.05;;;1.80;;
48847;SDS011;36611;51.638;5.784;2023-06-14T08:32:36;1.85;;;1.52;;
48847;SDS011;36611;51.638;5.784;2023-06-14T08:35:03;1.98;;;1.40;;
48847;SDS011;36611;51.638;5.784;2023-06-14T08:37:32;3.33;;;1.70;;
48847;SDS011;36611;51.638;5.784;2023-06-14T08:40:00;2.15;;;1.80;;
48847;SDS011;36611;51.638;5.784;2023-06-14T08:42:28;2.13;;;1.45;;
48847;SDS011;36611;51.638;5.784;2023-06-14T08:44:57;1.60;;;1.40;;
48847;SDS011;36611;51.638;5.784;2023-06-14T08:47:24;2.00;;;1.40;;
48847;SDS011;36611;51.638;5.784;2023-06-14T08:49:53;1.60;;;1.40;;
48847;SDS011;36611;51.638;5.784;2023-06-14T08:52:23;2.92;;;1.70;;
48847;SDS011;36611;51.638;5.784;2023-06-14T08:54:56;2.05;;;1.80;;
48847;SDS011;36611;51.638;5.784;2023-06-14T08:57:26;2.50;;;1.30;;
48847;SDS011;36611;51.638;5.784;2023-06-14T08:59:56;1.90;;;1.42;;
48847;SDS011;36611;51.638;5.784;2023-06-14T09:02:23;2.00;;;1.58;;
48847;SDS011;36611;51.638;5.784;2023-06-14T09:04:51;2.40;;;1.42;;
48847;SDS011;36611;51.638;5.784;2023-06-14T09:07:18;1.88;;;1.40;;
48847;SDS011;36611;51.638;5.784;2023-06-14T09:09:44;1.65;;;1.33;;
48847;SDS011;36611;51.638;5.784;2023-06-14T09:12:31;3.15;;;1.42;;
48847;SDS011;36611;51.638;5.784;2023-06-14T09:14:57;1.55;;;1.20;;
48847;SDS011;36611;51.638;5.784;2023-06-14T09:17:24;2.00;;;1.40;;
48847;SDS011;36611;51.638;5.784;2023-06-14T09:19:51;3.38;;;1.48;;
48847;SDS011;36611;51.638;5.784;2023-06-14T09:22:17;2.83;;;1.30;;
48847;SDS011;36611;51.638;5.784;2023-06-14T09:24:44;1.85;;;1.58;;
48847;SDS011;36611;51.638;5.784;2023-06-14T09:27:14;1.58;;;1.27;;
48847;SDS011;36611;51.638;5.784;2023-06-14T09:29:42;1.65;;;1.30;;
48847;SDS011;36611;51.638;5.784;2023-06-14T09:32:08;2.20;;;1.38;;
48847;SDS011;36611;51.638;5.784;2023-06-14T09:34:35;2.67;;;1.70;;
48847;SDS011;36611;51.638;5.784;2023-06-14T09:37:02;1.73;;;1.48;;
48847;SDS011;36611;51.638;5.784;2023-06-14T09:39:29;2.20;;;1.50;;
48847;SDS011;36611;51.638;5.784;2023-06-14T09:41:56;1.45;;;1.20;;
48847;SDS011;36611;51.638;5.784;2023-06-14T09:44:22;1.40;;;1.10;;
48847;SDS011;36611;51.638;5.784;2023-06-14T09:46:55;2.28;;;1.50;;
48847;SDS011;36611;51.638;5.784;2023-06-14T09:49:22;1.52;;;1.20;;
48847;SDS011;36611;51.638;5.784;2023-06-14T09:51:50;3.17;;;1.17;;
48847;SDS011;36611;51.638;5.784;2023-06-14T09:54:20;3.00;;;1.73;;
48847;SDS011;36611;51.638;5.784;2023-06-14T09:56:49;1.50;;;1.20;;
48847;SDS011;36611;51.638;5.784;2023-06-14T09:59:21;1.90;;;1.20;;
48847;SDS011;36611;51.638;5.784;2023-06-14T10:01:57;1.73;;;1.23;;
48847;SDS011;36611;51.638;5.784;2023-06-14T10:04:26;2.40;;;1.10;;
48847;SDS011;36611;51.638;5.784;2023-06-14T10:06:56;1.70;;;1.35;;
48847;SDS011;36611;51.638;5.784;2023-06-14T10:09:23;1.15;;;1.05;;
48847;SDS011;36611;51.638;5.784;2023-06-14T10:11:51;2.13;;;1.00;;
48847;SDS011;36611;51.638;5.784;2023-06-14T10:14:18;2.08;;;1.30;;
48847;SDS011;36611;51.638;5.784;2023-06-14T10:17:03;2.58;;;1.30;;
48847;SDS011;36611;51.638;5.784;2023-06-14T10:22:06;2.47;;;1.40;;
48847;SDS011;36611;51.638;5.784;2023-06-14T10:24:41;1.40;;;1.08;;
48847;SDS011;36611;51.638;5.784;2023-06-14T10:27:09;2.40;;;1.25;;
48847;SDS011;36611;51.638;5.784;2023-06-14T10:32:24;2.72;;;1.23;;
48847;SDS011;36611;51.638;5.784;2023-06-14T10:34:59;2.40;;;1.30;;
48847;SDS011;36611;51.638;5.784;2023-06-14T10:37:27;2.33;;;1.48;;
48847;SDS011;36611;51.638;5.784;2023-06-14T10:39:54;2.45;;;1.05;;
48847;SDS011;36611;51.638;5.784;2023-06-14T10:42:21;3.05;;;1.10;;
48847;SDS011;36611;51.638;5.784;2023-06-14T10:44:49;2.42;;;1.40;;
48847;SDS011;36611;51.638;5.784;2023-06-14T10:47:25;1.90;;;1.42;;
48847;SDS011;36611;51.638;5.784;2023-06-14T10:49:57;2.78;;;1.55;;
48847;SDS011;36611;51.638;5.784;2023-06-14T10:52:31;1.88;;;1.10;;
48847;SDS011;36611;51.638;5.784;2023-06-14T10:55:11;3.20;;;1.30;;
48847;SDS011;36611;51.638;5.784;2023-06-14T10:57:48;1.52;;;1.02;;
48847;SDS011;36611;51.638;5.784;2023-06-14T11:00:22;1.77;;;1.10;;
48847;SDS011;36611;51.638;5.784;2023-06-14T11:05:57;2.38;;;1.10;;
48847;SDS011;36611;51.638;5.784;2023-06-14T11:11:10;1.73;;;1.10;;
48847;SDS011;36611;51.638;5.784;2023-06-14T11:13:39;3.60;;;1.33;;
48847;SDS011;36611;51.638;5.784;2023-06-14T11:16:16;2.95;;;1.13;;
48847;SDS011;36611;51.638;5.784;2023-06-14T11:18:45;1.95;;;1.10;;
48847;SDS011;36611;51.638;5.784;2023-06-14T11:21:16;2.40;;;1.15;;
48847;SDS011;36611;51.638;5.784;2023-06-14T11:23:50;3.42;;;1.38;;
48847;SDS011;36611;51.638;5.784;2023-06-14T11:26:25;2.47;;;1.13;;
48847;SDS011;36611;51.638;5.784;2023-06-14T11:28:59;2.83;;;1.23;;
48847;SDS011;36611;51.638;5.784;2023-06-14T11:31:26;1.70;;;0.93;;
48847;SDS011;36611;51.638;5.784;2023-06-14T11:33:55;1.80;;;1.20;;
48847;SDS011;36611;51.638;5.784;2023-06-14T11:36:29;2.42;;;1.15;;
48847;SDS011;36611;51.638;5.784;2023-06-14T11:38:58;3.40;;;1.00;;
48847;SDS011;36611;51.638;5.784;2023-06-14T11:41:25;1.67;;;1.20;;
48847;SDS011;36611;51.638;5.784;2023-06-14T11:43:52;2.17;;;1.20;;
48847;SDS011;36611;51.638;5.784;2023-06-14T11:46:20;1.70;;;1.13;;
48847;SDS011;36611;51.638;5.784;2023-06-14T11:48:50;2.58;;;1.20;;
48847;SDS011;36611;51.638;5.784;2023-06-14T11:51:18;1.55;;;1.02;;
48847;SDS011;36611;51.638;5.784;2023-06-14T11:53:45;1.33;;;1.00;;
48847;SDS011;36611;51.638;5.784;2023-06-14T11:56:12;1.27;;;1.05;;
48847;SDS011;36611;51.638;5.784;2023-06-14T11:58:43;1.40;;;0.90;;
48847;SDS011;36611;51.638;5.784;2023-06-14T12:01:13;1.63;;;1.10;;
48847;SDS011;36611;51.638;5.784;2023-06-14T12:03:46;2.78;;;1.13;;
48847;SDS011;36611;51.638;5.784;2023-06-14T12:06:19;1.35;;;0.82;;
48847;SDS011;36611;51.638;5.784;2023-06-14T12:08:59;2.45;;;1.23;;
48847;SDS011;36611;51.638;5.784;2023-06-14T12:11:32;1.48;;;1.10;;
48847;SDS011;36611;51.638;5.784;2023-06-14T12:14:02;3.17;;;1.23;;
48847;SDS011;36611;51.638;5.784;2023-06-14T12:16:33;2.45;;;0.90;;
48847;SDS011;36611;51.638;5.784;2023-06-14T12:19:36;1.27;;;0.90;;
48847;SDS011;36611;51.638;5.784;2023-06-14T12:21:55;2.38;;;1.05;;
48847;SDS011;36611;51.638;5.784;2023-06-14T12:24:29;1.75;;;1.02;;
48847;SDS011;36611;51.638;5.784;2023-06-14T12:26:59;1.63;;;0.90;;
48847;SDS011;36611;51.638;5.784;2023-06-14T12:29:31;1.90;;;1.00;;
48847;SDS011;36611;51.638;5.784;2023-06-14T12:31:58;2.28;;;1.00;;
48847;SDS011;36611;51.638;5.784;2023-06-14T12:34:26;2.53;;;1.17;;
48847;SDS011;36611;51.638;5.784;2023-06-14T12:36:53;1.30;;;1.00;;
48847;SDS011;36611;51.638;5.784;2023-06-14T12:39:20;1.50;;;1.02;;
48847;SDS011;36611;51.638;5.784;2023-06-14T12:41:47;1.52;;;1.10;;
48847;SDS011;36611;51.638;5.784;2023-06-14T12:44:14;1.88;;;1.10;;
48847;SDS011;36611;51.638;5.784;2023-06-14T12:46:42;2.05;;;1.00;;
48847;SDS011;36611;51.638;5.784;2023-06-14T12:49:10;1.60;;;0.93;;
48847;SDS011;36611;51.638;5.784;2023-06-14T12:51:40;1.92;;;0.93;;
48847;SDS011;36611;51.638;5.784;2023-06-14T12:54:07;0.90;;;0.80;;
48847;SDS011;36611;51.638;5.784;2023-06-14T12:56:34;1.13;;;0.90;;
48847;SDS011;36611;51.638;5.784;2023-06-14T12:59:01;1.27;;;1.00;;
48847;SDS011;36611;51.638;5.784;2023-06-14T13:01:27;2.83;;;0.95;;
48847;SDS011;36611;51.638;5.784;2023-06-14T13:03:54;2.05;;;1.20;;
48847;SDS011;36611;51.638;5.784;2023-06-14T13:06:21;1.10;;;1.00;;
48847;SDS011;36611;51.638;5.784;2023-06-14T13:08:51;1.00;;;0.85;;
48847;SDS011;36611;51.638;5.784;2023-06-14T13:11:21;1.30;;;0.85;;
48847;SDS011;36611;51.638;5.784;2023-06-14T13:13:47;1.75;;;0.80;;
48847;SDS011;36611;51.638;5.784;2023-06-14T13:16:14;1.38;;;1.00;;
48847;SDS011;36611;51.638;5.784;2023-06-14T13:18:41;1.48;;;0.70;;
48847;SDS011;36611;51.638;5.784;2023-06-14T13:21:07;1.88;;;1.10;;
48847;SDS011;36611;51.638;5.784;2023-06-14T13:23:34;1.20;;;0.90;;
48847;SDS011;36611;51.638;5.784;2023-06-14T13:26:00;1.83;;;0.93;;
48847;SDS011;36611;51.638;5.784;2023-06-14T13:28:29;1.10;;;1.00;;
48847;SDS011;36611;51.638;5.784;2023-06-14T13:30:57;1.10;;;0.95;;
48847;SDS011;36611;51.638;5.784;2023-06-14T13:33:24;2.00;;;0.90;;
48847;SDS011;36611;51.638;5.784;2023-06-14T13:35:51;1.30;;;0.80;;
48847;SDS011;36611;51.638;5.784;2023-06-14T13:38:19;1.10;;;0.80;;
48847;SDS011;36611;51.638;5.784;2023-06-14T13:40:45;1.00;;;0.70;;
48847;SDS011;36611;51.638;5.784;2023-06-14T13:43:12;1.20;;;0.93;;
48847;SDS011;36611;51.638;5.784;2023-06-14T13:45:38;1.50;;;0.85;;
48847;SDS011;36611;51.638;5.784;2023-06-14T13:48:05;1.02;;;0.82;;
48847;SDS011;36611;51.638;5.784;2023-06-14T13:50:32;1.55;;;0.98;;
48847;SDS011;36611;51.638;5.784;2023-06-14T13:52:59;1.40;;;1.00;;
48847;SDS011;36611;51.638;5.784;2023-06-14T13:55:26;1.17;;;0.75;;
48847;SDS011;36611;51.638;5.784;2023-06-14T13:57:52;2.20;;;0.95;;
48847;SDS011;36611;51.638;5.784;2023-06-14T14:00:19;0.90;;;0.70;;
48847;SDS011;36611;51.638;5.784;2023-06-14T14:02:49;1.48;;;0.90;;
48847;SDS011;36611;51.638;5.784;2023-06-14T14:05:17;1.17;;;0.80;;
48847;SDS011;36611;51.638;5.784;2023-06-14T14:07:43;1.40;;;0.80;;
48847;SDS011;36611;51.638;5.784;2023-06-14T14:10:10;2.50;;;1.10;;
48847;SDS011;36611;51.638;5.784;2023-06-14T14:12:39;1.20;;;0.75;;
48847;SDS011;36611;51.638;5.784;2023-06-14T14:15:06;1.60;;;0.70;;
48847;SDS011;36611;51.638;5.784;2023-06-14T14:17:39;0.90;;;0.70;;
48847;SDS011;36611;51.638;5.784;2023-06-14T14:20:06;1.13;;;0.70;;
48847;SDS011;36611;51.638;5.784;2023-06-14T14:22:33;1.70;;;0.70;;
48847;SDS011;36611;51.638;5.784;2023-06-14T14:25:00;1.20;;;0.70;;
48847;SDS011;36611;51.638;5.784;2023-06-14T14:27:26;0.80;;;0.70;;
48847;SDS011;36611;51.638;5.784;2023-06-14T14:29:53;1.55;;;0.65;;
48847;SDS011;36611;51.638;5.784;2023-06-14T14:32:19;0.93;;;0.70;;
48847;SDS011;36611;51.638;5.784;2023-06-14T14:34:46;1.00;;;0.63;;
48847;SDS011;36611;51.638;5.784;2023-06-14T14:37:13;1.20;;;0.80;;
48847;SDS011;36611;51.638;5.784;2023-06-14T14:39:41;1.50;;;1.00;;
48847;SDS011;36611;51.638;5.784;2023-06-14T14:42:07;1.20;;;0.88;;
48847;SDS011;36611;51.638;5.784;2023-06-14T14:44:34;0.73;;;0.60;;
48847;SDS011;36611;51.638;5.784;2023-06-14T14:47:01;0.93;;;0.63;;
48847;SDS011;36611;51.638;5.784;2023-06-14T14:49:30;0.90;;;0.70;;
48847;SDS011;36611;51.638;5.784;2023-06-14T14:51:57;0.98;;;0.60;;
48847;SDS011;36611;51.638;5.784;2023-06-14T14:54:33;1.15;;;0.65;;
48847;SDS011;36611;51.638;5.784;2023-06-14T14:57:00;1.02;;;0.65;;
48847;SDS011;36611;51.638;5.784;2023-06-14T14:59:26;1.75;;;0.65;;
48847;SDS011;36611;51.638;5.784;2023-06-14T15:01:53;0.85;;;0.60;;
48847;SDS011;36611;51.638;5.784;2023-06-14T15:04:20;1.20;;;0.88;;
48847;SDS011;36611;51.638;5.784;2023-06-14T15:06:46;0.80;;;0.60;;
48847;SDS011;36611;51.638;5.784;2023-06-14T15:09:13;0.70;;;0.50;;
48847;SDS011;36611;51.638;5.784;2023-06-14T15:11:41;0.98;;;0.52;;